sensor_id;sensor_type;location;lat;lon;timestamp;pressure;altitude;pressure_sealevel;temperature;humidity
1724;BME280;7460;52.738;6.282;2022-10-31T00:02:33;100072.53;;;15.85;100.00
1724;BME280;7460;52.738;6.282;2022-10-31T00:05:07;100073.28;;;15.59;100.00
1724;BME280;7460;52.738;6.282;2022-10-31T00:07:41;100079.03;;;15.77;100.00
1724;BME280;7460;52.738;6.282;2022-10-31T00:10:14;100077.38;;;15.90;100.00
1724;BME280;7460;52.738;6.282;2022-10-31T00:12:47;100081.97;;;15.82;100.00
1724;BME280;7460;52.738;6.282;2022-10-31T00:15:22;100076.75;;;15.94;100.00
1724;BME280;7460;52.738;6.282;2022-10-31T00:17:56;100074.88;;;15.95;100.00
1724;BME280;7460;52.738;6.282;2022-10-31T00:20:31;100077.56;;;15.81;100.00
1724;BME280;7460;52.738;6.282;2022-10-31T00:23:05;100079.66;;;15.79;100.00
1724;BME280;7460;52.738;6.282;2022-10-31T00:25:39;100077.56;;;15.88;100.00
1724;BME280;7460;52.738;6.282;2022-10-31T00:28:13;100076.72;;;15.88;100.00
1724;BME280;7460;52.738;6.282;2022-10-31T00:30:47;100070.44;;;16.00;100.00
1724;BME280;7460;52.738;6.282;2022-10-31T00:33:21;100075.47;;;15.90;100.00
1724;BME280;7460;52.738;6.282;2022-10-31T00:35:55;100065.41;;;15.91;100.00
1724;BME280;7460;52.738;6.282;2022-10-31T00:38:28;100070.66;;;15.79;100.00
1724;BME280;7460;52.738;6.282;2022-10-31T00:41:02;100063.31;;;15.93;100.00
1724;BME280;7460;52.738;6.282;2022-10-31T00:43:36;100068.25;;;15.63;100.00
1724;BME280;7460;52.738;6.282;2022-10-31T00:46:11;100075.91;;;15.87;100.00
1724;BME280;7460;52.738;6.282;2022-10-31T00:48:45;100076.75;;;16.07;100.00
1724;BME280;7460;52.738;6.282;2022-10-31T00:51:19;100073.78;;;15.76;100.00
1724;BME280;7460;52.738;6.282;2022-10-31T00:53:53;100074.84;;;15.88;100.00
1724;BME280;7460;52.738;6.282;2022-10-31T00:56:27;100076.31;;;15.84;100.00
1724;BME280;7460;52.738;6.282;2022-10-31T00:59:01;100084.13;;;15.46;100.00
1724;BME280;7460;52.738;6.282;2022-10-31T01:01:36;100095.72;;;15.55;100.00
1724;BME280;7460;52.738;6.282;2022-10-31T01:04:10;100092.63;;;15.58;100.00
1724;BME280;7460;52.738;6.282;2022-10-31T01:06:44;100090.66;;;15.52;100.00
1724;BME280;7460;52.738;6.282;2022-10-31T01:09:18;100096.41;;;15.57;100.00
1724;BME280;7460;52.738;6.282;2022-10-31T01:11:51;100090.56;;;15.79;100.00
1724;BME280;7460;52.738;6.282;2022-10-31T01:14:24;100092.41;;;15.66;100.00
1724;BME280;7460;52.738;6.282;2022-10-31T01:16:59;100095.56;;;15.63;100.00
1724;BME280;7460;52.738;6.282;2022-10-31T01:19:33;100097.22;;;15.64;100.00
1724;BME280;7460;52.738;6.282;2022-10-31T01:22:07;100097.28;;;15.70;100.00
1724;BME280;7460;52.738;6.282;2022-10-31T01:24:41;100091.59;;;15.72;100.00
1724;BME280;7460;52.738;6.282;2022-10-31T01:27:14;100099.84;;;15.92;100.00
1724;BME280;7460;52.738;6.282;2022-10-31T01:29:48;100096.25;;;15.85;100.00
1724;BME280;7460;52.738;6.282;2022-10-31T01:32:23;100103.38;;;15.72;100.00
1724;BME280;7460;52.738;6.282;2022-10-31T01:34:56;100100.44;;;15.80;100.00
1724;BME280;7460;52.738;6.282;2022-10-31T01:37:30;100113.25;;;15.80;100.00
1724;BME280;7460;52.738;6.282;2022-10-31T01:40:04;100106.50;;;15.69;100.00
1724;BME280;7460;52.738;6.282;2022-10-31T01:42:37;100104.63;;;15.70;100.00
1724;BME280;7460;52.738;6.282;2022-10-31T01:45:14;100105.69;;;15.75;100.00
1724;BME280;7460;52.738;6.282;2022-10-31T01:47:49;100101.88;;;15.70;100.00
1724;BME280;7460;52.738;6.282;2022-10-31T01:50:29;100103.25;;;15.53;100.00
1724;BME280;7460;52.738;6.282;2022-10-31T01:53:06;100108.91;;;15.51;100.00
1724;BME280;7460;52.738;6.282;2022-10-31T01:55:44;100118.94;;;15.44;100.00
1724;BME280;7460;52.738;6.282;2022-10-31T01:58:21;100112.66;;;15.37;100.00
1724;BME280;7460;52.738;6.282;2022-10-31T02:00:59;100118.16;;;15.50;100.00
1724;BME280;7460;52.738;6.282;2022-10-31T02:03:40;100117.38;;;15.56;100.00
1724;BME280;7460;52.738;6.282;2022-10-31T02:06:22;100118.16;;;15.50;100.00
1724;BME280;7460;52.738;6.282;2022-10-31T02:09:00;100123.16;;;15.46;100.00
1724;BME280;7460;52.738;6.282;2022-10-31T02:11:37;100105.63;;;15.56;100.00
1724;BME280;7460;52.738;6.282;2022-10-31T02:14:11;100107.72;;;15.19;100.00
1724;BME280;7460;52.738;6.282;2022-10-31T02:16:44;100108.47;;;15.47;100.00
1724;BME280;7460;52.738;6.282;2022-10-31T02:19:26;100113.09;;;15.47;100.00
1724;BME280;7460;52.738;6.282;2022-10-31T02:22:10;100116.63;;;15.41;100.00
1724;BME280;7460;52.738;6.282;2022-10-31T02:24:58;100104.75;;;15.55;100.00
1724;BME280;7460;52.738;6.282;2022-10-31T02:28:08;100101.94;;;15.42;100.00
1724;BME280;7460;52.738;6.282;2022-10-31T02:31:00;100110.81;;;15.51;100.00
1724;BME280;7460;52.738;6.282;2022-10-31T02:33:43;100106.59;;;15.48;100.00
1724;BME280;7460;52.738;6.282;2022-10-31T02:36:25;100111.16;;;15.34;100.00
1724;BME280;7460;52.738;6.282;2022-10-31T02:39:08;100108.34;;;15.56;100.00
1724;BME280;7460;52.738;6.282;2022-10-31T02:41:49;100111.25;;;15.54;100.00
1724;BME280;7460;52.738;6.282;2022-10-31T02:44:30;100105.06;;;15.32;100.00
1724;BME280;7460;52.738;6.282;2022-10-31T02:47:13;100100.91;;;15.43;100.00
1724;BME280;7460;52.738;6.282;2022-10-31T02:49:53;100100.06;;;15.42;100.00
1724;BME280;7460;52.738;6.282;2022-10-31T02:52:31;100098.63;;;15.46;100.00
1724;BME280;7460;52.738;6.282;2022-10-31T02:55:11;100093.31;;;15.38;100.00
1724;BME280;7460;52.738;6.282;2022-10-31T02:57:44;100088.00;;;15.17;100.00
1724;BME280;7460;52.738;6.282;2022-10-31T03:00:18;100085.34;;;15.30;100.00
1724;BME280;7460;52.738;6.282;2022-10-31T03:03:00;100081.28;;;15.20;100.00
1724;BME280;7460;52.738;6.282;2022-10-31T03:05:52;100082.94;;;15.14;100.00
1724;BME280;7460;52.738;6.282;2022-10-31T03:08:34;100082.00;;;15.35;100.00
1724;BME280;7460;52.738;6.282;2022-10-31T03:11:09;100078.84;;;15.31;100.00
1724;BME280;7460;52.738;6.282;2022-10-31T03:13:47;100076.94;;;15.32;100.00
1724;BME280;7460;52.738;6.282;2022-10-31T03:16:28;100066.78;;;15.12;100.00
1724;BME280;7460;52.738;6.282;2022-10-31T03:19:09;100074.38;;;15.24;100.00
1724;BME280;7460;52.738;6.282;2022-10-31T03:21:45;100077.09;;;15.24;100.00
1724;BME280;7460;52.738;6.282;2022-10-31T03:24:22;100089.25;;;15.15;100.00
1724;BME280;7460;52.738;6.282;2022-10-31T03:26:59;100082.75;;;15.16;100.00
1724;BME280;7460;52.738;6.282;2022-10-31T03:29:35;100079.88;;;15.30;100.00
1724;BME280;7460;52.738;6.282;2022-10-31T03:32:13;100085.47;;;15.16;100.00
1724;BME280;7460;52.738;6.282;2022-10-31T03:34:51;100095.44;;;15.36;100.00
1724;BME280;7460;52.738;6.282;2022-10-31T03:37:32;100084.69;;;15.28;100.00
1724;BME280;7460;52.738;6.282;2022-10-31T03:40:08;100082.31;;;15.19;100.00
1724;BME280;7460;52.738;6.282;2022-10-31T03:42:51;100083.28;;;15.45;100.00
1724;BME280;7460;52.738;6.282;2022-10-31T03:45:27;100075.25;;;15.31;100.00
1724;BME280;7460;52.738;6.282;2022-10-31T03:48:02;100073.63;;;15.43;100.00
1724;BME280;7460;52.738;6.282;2022-10-31T03:50:42;100067.34;;;15.49;100.00
1724;BME280;7460;52.738;6.282;2022-10-31T03:53:22;100067.34;;;15.49;100.00
1724;BME280;7460;52.738;6.282;2022-10-31T03:56:02;100058.41;;;15.62;100.00
1724;BME280;7460;52.738;6.282;2022-10-31T03:58:38;100059.88;;;15.58;100.00
1724;BME280;7460;52.738;6.282;2022-10-31T04:01:17;100043.03;;;15.54;100.00
1724;BME280;7460;52.738;6.282;2022-10-31T04:03:53;100048.97;;;15.58;100.00
1724;BME280;7460;52.738;6.282;2022-10-31T04:06:29;100051.00;;;15.49;100.00
1724;BME280;7460;52.738;6.282;2022-10-31T04:09:06;100039.72;;;15.59;100.00
1724;BME280;7460;52.738;6.282;2022-10-31T04:11:45;100041.09;;;15.41;100.00
1724;BME280;7460;52.738;6.282;2022-10-31T04:14:22;100034.72;;;15.69;100.00
1724;BME280;7460;52.738;6.282;2022-10-31T04:16:58;100035.69;;;15.55;100.00
1724;BME280;7460;52.738;6.282;2022-10-31T04:19:32;100030.47;;;15.60;100.00
1724;BME280;7460;52.738;6.282;2022-10-31T04:22:10;100029.63;;;15.59;100.00
1724;BME280;7460;52.738;6.282;2022-10-31T04:24:44;100022.75;;;15.70;100.00
1724;BME280;7460;52.738;6.282;2022-10-31T04:27:17;100013.06;;;15.61;100.00
1724;BME280;7460;52.738;6.282;2022-10-31T04:29:51;100030.47;;;15.60;100.00
1724;BME280;7460;52.738;6.282;2022-10-31T04:32:24;100029.91;;;15.77;100.00
1724;BME280;7460;52.738;6.282;2022-10-31T04:34:59;100028.03;;;15.78;100.00
1724;BME280;7460;52.738;6.282;2022-10-31T04:37:34;100007.81;;;15.66;100.00
1724;BME280;7460;52.738;6.282;2022-10-31T04:40:09;100012.03;;;15.68;100.00
1724;BME280;7460;52.738;6.282;2022-10-31T04:42:43;100006.31;;;15.50;100.00
1724;BME280;7460;52.738;6.282;2022-10-31T04:45:16;100010.31;;;15.54;100.00
1724;BME280;7460;52.738;6.282;2022-10-31T04:47:52;100012.47;;;15.72;100.00
1724;BME280;7460;52.738;6.282;2022-10-31T04:50:26;100017.00;;;15.52;100.00
1724;BME280;7460;52.738;6.282;2022-10-31T04:53:01;100018.97;;;15.71;100.00
1724;BME280;7460;52.738;6.282;2022-10-31T04:55:35;100012.84;;;15.62;100.00
1724;BME280;7460;52.738;6.282;2022-10-31T04:58:09;100021.63;;;15.51;100.00
1724;BME280;7460;52.738;6.282;2022-10-31T05:00:43;100017.50;;;15.68;100.00
1724;BME280;7460;52.738;6.282;2022-10-31T05:03:17;100016.25;;;15.77;100.00
1724;BME280;7460;52.738;6.282;2022-10-31T05:05:50;100007.44;;;15.75;100.00
1724;BME280;7460;52.738;6.282;2022-10-31T05:08:26;100007.13;;;15.51;100.00
1724;BME280;7460;52.738;6.282;2022-10-31T05:11:00;100014.34;;;15.71;100.00
1724;BME280;7460;52.738;6.282;2022-10-31T05:13:35;100018.34;;;15.89;100.00
1724;BME280;7460;52.738;6.282;2022-10-31T05:16:09;100014.59;;;15.96;100.00
1724;BME280;7460;52.738;6.282;2022-10-31T05:18:42;100004.91;;;16.00;100.00
1724;BME280;7460;52.738;6.282;2022-10-31T05:21:16;100007.63;;;15.80;100.00
1724;BME280;7460;52.738;6.282;2022-10-31T05:23:52;100011.84;;;15.90;100.00
1724;BME280;7460;52.738;6.282;2022-10-31T05:26:25;100004.06;;;15.80;100.00
1724;BME280;7460;52.738;6.282;2022-10-31T05:28:59;100004.31;;;15.98;100.00
1724;BME280;7460;52.738;6.282;2022-10-31T05:31:33;100014.59;;;15.90;100.00
1724;BME280;7460;52.738;6.282;2022-10-31T05:34:06;100013.50;;;15.71;100.00
1724;BME280;7460;52.738;6.282;2022-10-31T05:36:39;100021.53;;;15.99;100.00
1724;BME280;7460;52.738;6.282;2022-10-31T05:39:14;100013.75;;;16.22;100.00
1724;BME280;7460;52.738;6.282;2022-10-31T05:41:47;100004.09;;;16.00;100.00
1724;BME280;7460;52.738;6.282;2022-10-31T05:44:21;100002.97;;;15.61;100.00
1724;BME280;7460;52.738;6.282;2022-10-31T05:46:55;100000.06;;;15.63;100.00
1724;BME280;7460;52.738;6.282;2022-10-31T05:49:28;99996.13;;;15.98;100.00
1724;BME280;7460;52.738;6.282;2022-10-31T05:52:02;99994.44;;;15.77;100.00
1724;BME280;7460;52.738;6.282;2022-10-31T05:54:37;99980.59;;;15.99;100.00
1724;BME280;7460;52.738;6.282;2022-10-31T05:57:11;99984.34;;;15.91;100.00
1724;BME280;7460;52.738;6.282;2022-10-31T05:59:44;99990.47;;;16.00;100.00
1724;BME280;7460;52.738;6.282;2022-10-31T06:02:25;99980.13;;;16.02;100.00
1724;BME280;7460;52.738;6.282;2022-10-31T06:04:59;99976.56;;;16.01;100.00
1724;BME280;7460;52.738;6.282;2022-10-31T06:07:33;99982.25;;;16.13;100.00
1724;BME280;7460;52.738;6.282;2022-10-31T06:10:09;99985.19;;;15.92;100.00
1724;BME280;7460;52.738;6.282;2022-10-31T06:12:42;99990.25;;;15.95;100.00
1724;BME280;7460;52.738;6.282;2022-10-31T06:15:16;99975.13;;;16.12;100.00
1724;BME280;7460;52.738;6.282;2022-10-31T06:17:59;99979.53;;;15.93;100.00
1724;BME280;7460;52.738;6.282;2022-10-31T06:20:34;99967.34;;;16.15;100.00
1724;BME280;7460;52.738;6.282;2022-10-31T06:23:08;99963.34;;;16.18;100.00
1724;BME280;7460;52.738;6.282;2022-10-31T06:25:42;99966.28;;;16.10;100.00
1724;BME280;7460;52.738;6.282;2022-10-31T06:28:16;99969.44;;;16.13;100.00
1724;BME280;7460;52.738;6.282;2022-10-31T06:30:49;99961.66;;;16.04;100.00
1724;BME280;7460;52.738;6.282;2022-10-31T06:33:22;99959.97;;;15.83;100.00
1724;BME280;7460;52.738;6.282;2022-10-31T06:35:55;99973.41;;;16.04;100.00
1724;BME280;7460;52.738;6.282;2022-10-31T06:38:28;99960.84;;;15.90;100.00
1724;BME280;7460;52.738;6.282;2022-10-31T06:41:05;99971.72;;;15.64;100.00
1724;BME280;7460;52.738;6.282;2022-10-31T06:43:38;99958.31;;;15.95;100.00
1724;BME280;7460;52.738;6.282;2022-10-31T06:46:11;99959.16;;;16.15;100.00
1724;BME280;7460;52.738;6.282;2022-10-31T06:48:45;99959.56;;;16.12;100.00
1724;BME280;7460;52.738;6.282;2022-10-31T06:51:19;99970.28;;;16.21;100.00
1724;BME280;7460;52.738;6.282;2022-10-31T06:53:52;99968.38;;;16.21;100.00
1724;BME280;7460;52.738;6.282;2022-10-31T06:56:27;99963.16;;;16.00;100.00
1724;BME280;7460;52.738;6.282;2022-10-31T06:59:01;99963.78;;;16.15;100.00
1724;BME280;7460;52.738;6.282;2022-10-31T07:01:34;99962.09;;;16.14;100.00
1724;BME280;7460;52.738;6.282;2022-10-31T07:04:09;99960.38;;;16.26;100.00
1724;BME280;7460;52.738;6.282;2022-10-31T07:06:42;99957.25;;;16.16;100.00
1724;BME280;7460;52.738;6.282;2022-10-31T07:09:22;99967.09;;;16.30;100.00
1724;BME280;7460;52.738;6.282;2022-10-31T07:11:57;99978.47;;;16.21;100.00
1724;BME280;7460;52.738;6.282;2022-10-31T07:14:31;99971.75;;;16.10;100.00
1724;BME280;7460;52.738;6.282;2022-10-31T07:17:05;99974.88;;;16.33;100.00
1724;BME280;7460;52.738;6.282;2022-10-31T07:19:38;99977.59;;;16.33;100.00
1724;BME280;7460;52.738;6.282;2022-10-31T07:22:12;99975.09;;;16.32;100.00
1724;BME280;7460;52.738;6.282;2022-10-31T07:24:46;99978.00;;;16.43;100.00
1724;BME280;7460;52.738;6.282;2022-10-31T07:27:21;99986.00;;;16.32;100.00
1724;BME280;7460;52.738;6.282;2022-10-31T07:29:55;99988.94;;;16.24;100.00
1724;BME280;7460;52.738;6.282;2022-10-31T07:32:37;99995.22;;;16.44;100.00
1724;BME280;7460;52.738;6.282;2022-10-31T07:35:12;100005.31;;;16.43;100.00
1724;BME280;7460;52.738;6.282;2022-10-31T07:37:46;100005.94;;;16.45;100.00
1724;BME280;7460;52.738;6.282;2022-10-31T07:40:20;100003.84;;;16.47;100.00
1724;BME280;7460;52.738;6.282;2022-10-31T07:42:57;100004.06;;;16.59;100.00
1724;BME280;7460;52.738;6.282;2022-10-31T07:45:31;99996.91;;;16.71;100.00
1724;BME280;7460;52.738;6.282;2022-10-31T07:48:04;100003.44;;;16.57;100.00
1724;BME280;7460;52.738;6.282;2022-10-31T07:50:37;100007.19;;;16.63;100.00
1724;BME280;7460;52.738;6.282;2022-10-31T07:53:12;100013.03;;;16.93;100.00
1724;BME280;7460;52.738;6.282;2022-10-31T07:55:46;100007.22;;;17.27;100.00
1724;BME280;7460;52.738;6.282;2022-10-31T07:58:21;100014.31;;;17.41;100.00
1724;BME280;7460;52.738;6.282;2022-10-31T08:00:57;100009.25;;;17.45;100.00
1724;BME280;7460;52.738;6.282;2022-10-31T08:03:31;100008.31;;;17.64;100.00
1724;BME280;7460;52.738;6.282;2022-10-31T08:06:05;100002.03;;;17.89;100.00
1724;BME280;7460;52.738;6.282;2022-10-31T08:08:39;100002.44;;;18.17;100.00
1724;BME280;7460;52.738;6.282;2022-10-31T08:11:12;99998.91;;;18.10;100.00
1724;BME280;7460;52.738;6.282;2022-10-31T08:13:47;99992.06;;;18.01;100.00
1724;BME280;7460;52.738;6.282;2022-10-31T08:16:20;99983.84;;;18.26;100.00
1724;BME280;7460;52.738;6.282;2022-10-31T08:18:54;99979.69;;;18.16;100.00
1724;BME280;7460;52.738;6.282;2022-10-31T08:21:27;99980.97;;;17.89;100.00
1724;BME280;7460;52.738;6.282;2022-10-31T08:24:00;99984.75;;;17.88;100.00
1724;BME280;7460;52.738;6.282;2022-10-31T08:26:33;99983.78;;;17.82;100.00
1724;BME280;7460;52.738;6.282;2022-10-31T08:29:07;99986.13;;;18.04;100.00
1724;BME280;7460;52.738;6.282;2022-10-31T08:31:41;99977.53;;;18.25;100.00
1724;BME280;7460;52.738;6.282;2022-10-31T08:34:14;99972.13;;;18.12;100.00
1724;BME280;7460;52.738;6.282;2022-10-31T08:36:47;99969.56;;;18.17;100.00
1724;BME280;7460;52.738;6.282;2022-10-31T08:39:20;99970.97;;;18.26;100.00
1724;BME280;7460;52.738;6.282;2022-10-31T08:41:54;99960.41;;;18.05;100.00
1724;BME280;7460;52.738;6.282;2022-10-31T08:44:28;99975.75;;;18.31;100.00
1724;BME280;7460;52.738;6.282;2022-10-31T08:47:01;99972.78;;;18.32;100.00
1724;BME280;7460;52.738;6.282;2022-10-31T08:49:35;99969.78;;;18.15;100.00
1724;BME280;7460;52.738;6.282;2022-10-31T08:52:08;99971.59;;;18.28;100.00
1724;BME280;7460;52.738;6.282;2022-10-31T08:54:45;99982.06;;;18.31;100.00
1724;BME280;7460;52.738;6.282;2022-10-31T08:57:19;99951.88;;;18.38;100.00
1724;BME280;7460;52.738;6.282;2022-10-31T08:59:54;99971.69;;;18.15;100.00
1724;BME280;7460;52.738;6.282;2022-10-31T09:02:27;99977.00;;;18.10;100.00
1724;BME280;7460;52.738;6.282;2022-10-31T09:05:00;99977.22;;;18.76;100.00
1724;BME280;7460;52.738;6.282;2022-10-31T09:07:33;99987.28;;;18.82;100.00
1724;BME280;7460;52.738;6.282;2022-10-31T09:10:07;99985.16;;;18.66;100.00
1724;BME280;7460;52.738;6.282;2022-10-31T09:12:40;99972.97;;;18.62;100.00
1724;BME280;7460;52.738;6.282;2022-10-31T09:15:15;99969.78;;;18.59;100.00
1724;BME280;7460;52.738;6.282;2022-10-31T09:17:48;99967.44;;;18.19;100.00
1724;BME280;7460;52.738;6.282;2022-10-31T09:20:21;99967.25;;;19.00;100.00
1724;BME280;7460;52.738;6.282;2022-10-31T09:22:56;99959.91;;;18.94;100.00
1724;BME280;7460;52.738;6.282;2022-10-31T09:25:30;99959.09;;;18.94;100.00
1724;BME280;7460;52.738;6.282;2022-10-31T09:28:04;99961.75;;;18.82;100.00
1724;BME280;7460;52.738;6.282;2022-10-31T09:30:39;99963.44;;;18.83;100.00
1724;BME280;7460;52.738;6.282;2022-10-31T09:33:13;99950.78;;;19.00;100.00
1724;BME280;7460;52.738;6.282;2022-10-31T09:35:46;99965.91;;;19.21;100.00
1724;BME280;7460;52.738;6.282;2022-10-31T09:38:21;99957.22;;;19.24;100.00
1724;BME280;7460;52.738;6.282;2022-10-31T09:41:01;99953.44;;;19.07;100.00
1724;BME280;7460;52.738;6.282;2022-10-31T09:43:46;99948.47;;;18.42;100.00
1724;BME280;7460;52.738;6.282;2022-10-31T09:46:30;99947.63;;;18.42;100.00
1724;BME280;7460;52.738;6.282;2022-10-31T09:49:38;99934.16;;;18.40;100.00
1724;BME280;7460;52.738;6.282;2022-10-31T09:52:21;99938.88;;;18.51;100.00
1724;BME280;7460;52.738;6.282;2022-10-31T09:54:59;99934.81;;;18.36;100.00
1724;BME280;7460;52.738;6.282;2022-10-31T09:57:37;99946.53;;;18.86;100.00
1724;BME280;7460;52.738;6.282;2022-10-31T10:00:16;99945.69;;;19.34;100.00
1724;BME280;7460;52.738;6.282;2022-10-31T10:02:56;99945.56;;;19.29;100.00
1724;BME280;7460;52.738;6.282;2022-10-31T10:05:43;99946.75;;;19.03;100.00
1724;BME280;7460;52.738;6.282;2022-10-31T10:08:20;99939.66;;;18.59;100.00
1724;BME280;7460;52.738;6.282;2022-10-31T10:11:02;99946.53;;;18.68;100.00
1724;BME280;7460;52.738;6.282;2022-10-31T10:13:55;99938.00;;;18.76;100.00
1724;BME280;7460;52.738;6.282;2022-10-31T10:16:46;99941.97;;;18.80;100.00
1724;BME280;7460;52.738;6.282;2022-10-31T10:19:34;99939.66;;;18.77;100.00
1724;BME280;7460;52.738;6.282;2022-10-31T10:22:17;99937.47;;;18.67;100.00
1724;BME280;7460;52.738;6.282;2022-10-31T10:25:04;99936.78;;;18.90;100.00
1724;BME280;7460;52.738;6.282;2022-10-31T10:27:51;99936.94;;;18.77;100.00
1724;BME280;7460;52.738;6.282;2022-10-31T10:30:33;99944.72;;;18.62;100.00
1724;BME280;7460;52.738;6.282;2022-10-31T10:33:11;99954.28;;;18.71;100.00
1724;BME280;7460;52.738;6.282;2022-10-31T10:35:50;99935.44;;;18.38;100.00
1724;BME280;7460;52.738;6.282;2022-10-31T10:38:27;99935.41;;;18.81;100.00
1724;BME280;7460;52.738;6.282;2022-10-31T10:41:07;99930.47;;;18.90;100.00
1724;BME280;7460;52.738;6.282;2022-10-31T10:43:42;99922.59;;;18.93;100.00
1724;BME280;7460;52.738;6.282;2022-10-31T10:46:19;99925.56;;;19.10;100.00
1724;BME280;7460;52.738;6.282;2022-10-31T10:49:16;99915.19;;;19.12;100.00
1724;BME280;7460;52.738;6.282;2022-10-31T10:51:57;99916.88;;;18.95;100.00
1724;BME280;7460;52.738;6.282;2022-10-31T10:54:59;99927.78;;;19.31;100.00
1724;BME280;7460;52.738;6.282;2022-10-31T10:57:45;99916.16;;;19.47;100.00
1724;BME280;7460;52.738;6.282;2022-10-31T11:00:23;99913.13;;;19.67;100.00
1724;BME280;7460;52.738;6.282;2022-10-31T11:02:57;99912.19;;;19.73;100.00
1724;BME280;7460;52.738;6.282;2022-10-31T11:05:36;99911.50;;;19.18;100.00
1724;BME280;7460;52.738;6.282;2022-10-31T11:08:23;99905.28;;;19.94;100.00
1724;BME280;7460;52.738;6.282;2022-10-31T11:10:59;99901.81;;;19.99;100.00
1724;BME280;7460;52.738;6.282;2022-10-31T11:13:35;99903.59;;;20.16;100.00
1724;BME280;7460;52.738;6.282;2022-10-31T11:16:10;99890.81;;;20.22;100.00
1724;BME280;7460;52.738;6.282;2022-10-31T11:18:45;99878.31;;;20.14;100.00
1724;BME280;7460;52.738;6.282;2022-10-31T11:21:21;99876.13;;;19.81;100.00
1724;BME280;7460;52.738;6.282;2022-10-31T11:24:03;99873.63;;;19.68;100.00
1724;BME280;7460;52.738;6.282;2022-10-31T11:26:37;99875.91;;;19.41;100.00
1724;BME280;7460;52.738;6.282;2022-10-31T11:29:15;99877.78;;;19.29;100.00
1724;BME280;7460;52.738;6.282;2022-10-31T11:31:52;99869.72;;;19.16;100.00
1724;BME280;7460;52.738;6.282;2022-10-31T11:34:29;99866.06;;;18.92;100.00
1724;BME280;7460;52.738;6.282;2022-10-31T11:37:09;99866.59;;;19.31;100.00
1724;BME280;7460;52.738;6.282;2022-10-31T11:39:49;99860.56;;;19.10;100.00
1724;BME280;7460;52.738;6.282;2022-10-31T11:42:27;99851.47;;;19.10;100.00
1724;BME280;7460;52.738;6.282;2022-10-31T11:45:06;99853.75;;;18.83;100.00
1724;BME280;7460;52.738;6.282;2022-10-31T11:47:42;99850.72;;;18.73;100.00
1724;BME280;7460;52.738;6.282;2022-10-31T11:50:20;99855.84;;;18.99;100.00
1724;BME280;7460;52.738;6.282;2022-10-31T11:52:55;99858.97;;;19.03;100.00
1724;BME280;7460;52.738;6.282;2022-10-31T11:55:34;99851.28;;;18.93;100.00
1724;BME280;7460;52.738;6.282;2022-10-31T11:58:20;99848.50;;;18.81;100.00
1724;BME280;7460;52.738;6.282;2022-10-31T12:00:56;99851.09;;;18.58;100.00
1724;BME280;7460;52.738;6.282;2022-10-31T12:03:40;99849.81;;;18.42;100.00
1724;BME280;7460;52.738;6.282;2022-10-31T12:06:19;99851.31;;;18.57;100.00
1724;BME280;7460;52.738;6.282;2022-10-31T12:08:54;99845.78;;;18.63;100.00
1724;BME280;7460;52.738;6.282;2022-10-31T12:11:36;99839.88;;;18.78;100.00
1724;BME280;7460;52.738;6.282;2022-10-31T12:14:23;99833.19;;;19.04;100.00
1724;BME280;7460;52.738;6.282;2022-10-31T12:17:05;99838.22;;;19.07;100.00
1724;BME280;7460;52.738;6.282;2022-10-31T12:19:47;99829.16;;;19.06;100.00
1724;BME280;7460;52.738;6.282;2022-10-31T12:22:35;99819.78;;;19.26;100.00
1724;BME280;7460;52.738;6.282;2022-10-31T12:25:21;99826.72;;;19.40;100.00
1724;BME280;7460;52.738;6.282;2022-10-31T12:28:09;99820.81;;;19.13;100.00
1724;BME280;7460;52.738;6.282;2022-10-31T12:30:55;99809.56;;;19.33;100.00
1724;BME280;7460;52.738;6.282;2022-10-31T12:33:38;99815.94;;;19.15;100.00
1724;BME280;7460;52.738;6.282;2022-10-31T12:36:29;99806.75;;;19.09;100.00
1724;BME280;7460;52.738;6.282;2022-10-31T12:39:22;99802.19;;;19.03;100.00
1724;BME280;7460;52.738;6.282;2022-10-31T12:42:03;99798.03;;;19.12;100.00
1724;BME280;7460;52.738;6.282;2022-10-31T12:44:55;99799.84;;;19.18;100.00
1724;BME280;7460;52.738;6.282;2022-10-31T12:47:48;99789.09;;;19.05;100.00
1724;BME280;7460;52.738;6.282;2022-10-31T12:50:32;99783.88;;;19.27;100.00
1724;BME280;7460;52.738;6.282;2022-10-31T12:53:19;99779.72;;;19.48;100.00
1724;BME280;7460;52.738;6.282;2022-10-31T12:56:04;99768.97;;;19.35;100.00
1724;BME280;7460;52.738;6.282;2022-10-31T12:58:45;99760.81;;;19.16;100.00
1724;BME280;7460;52.738;6.282;2022-10-31T13:01:25;99765.50;;;19.28;100.00
1724;BME280;7460;52.738;6.282;2022-10-31T13:04:05;99766.13;;;19.30;100.00
1724;BME280;7460;52.738;6.282;2022-10-31T13:06:40;99758.13;;;19.40;100.00
1724;BME280;7460;52.738;6.282;2022-10-31T13:09:19;99753.94;;;19.49;100.00
1724;BME280;7460;52.738;6.282;2022-10-31T13:11:56;99743.38;;;19.52;100.00
1724;BME280;7460;52.738;6.282;2022-10-31T13:14:35;99735.13;;;19.52;100.00
1724;BME280;7460;52.738;6.282;2022-10-31T13:17:15;99723.56;;;19.50;100.00
1724;BME280;7460;52.738;6.282;2022-10-31T13:19:56;99720.31;;;19.65;100.00
1724;BME280;7460;52.738;6.282;2022-10-31T13:22:32;99715.16;;;19.34;100.00
1724;BME280;7460;52.738;6.282;2022-10-31T13:25:13;99711.66;;;19.03;100.00
1724;BME280;7460;52.738;6.282;2022-10-31T13:27:51;99698.91;;;19.20;100.00
1724;BME280;7460;52.738;6.282;2022-10-31T13:30:27;99693.81;;;19.24;100.00
1724;BME280;7460;52.738;6.282;2022-10-31T13:33:08;99688.19;;;19.31;100.00
1724;BME280;7460;52.738;6.282;2022-10-31T13:35:48;99695.44;;;18.90;100.00
1724;BME280;7460;52.738;6.282;2022-10-31T13:38:29;99683.06;;;19.22;100.00
1724;BME280;7460;52.738;6.282;2022-10-31T13:41:12;99680.66;;;19.03;100.00
1724;BME280;7460;52.738;6.282;2022-10-31T13:43:59;99676.09;;;18.85;100.00
1724;BME280;7460;52.738;6.282;2022-10-31T13:46:38;99669.47;;;19.28;100.00
1724;BME280;7460;52.738;6.282;2022-10-31T13:49:25;99665.53;;;19.12;100.00
1724;BME280;7460;52.738;6.282;2022-10-31T13:52:12;99651.22;;;19.10;100.00
1724;BME280;7460;52.738;6.282;2022-10-31T13:54:47;99656.94;;;19.08;100.00
1724;BME280;7460;52.738;6.282;2022-10-31T13:57:31;99649.16;;;18.70;100.00
1724;BME280;7460;52.738;6.282;2022-10-31T14:00:22;99642.84;;;18.70;100.00